createdAt,value
2022-08-05T00:01:36.032Z,101367.75
2022-08-05T00:04:55.735Z,101343.94
2022-08-05T00:08:03.171Z,101335.72
2022-08-05T00:11:20.739Z,101346.94
2022-08-05T00:14:33.537Z,101361.50
2022-08-05T00:17:38.795Z,101350.13
2022-08-05T00:20:46.945Z,101346.13
2022-08-05T00:24:10.575Z,101346.06
2022-08-05T00:27:16.963Z,101335.56
2022-08-05T00:30:31.912Z,101347.09
2022-08-05T00:34:54.486Z,101354.88
2022-08-05T00:37:11.129Z,101347.66
2022-08-05T00:40:28.453Z,101346.47
2022-08-05T00:43:47.336Z,101349.25
2022-08-05T00:47:01.869Z,101331.69
2022-08-05T00:50:10.538Z,101335.03
2022-08-05T00:53:44.847Z,101342.72
2022-08-05T00:56:51.578Z,101334.38
2022-08-05T00:59:57.319Z,101329.53
2022-08-05T01:03:02.566Z,101324.50
2022-08-05T01:06:15.279Z,101321.00
2022-08-05T01:09:21.322Z,101312.91
2022-08-05T01:12:29.837Z,101318.25
2022-08-05T01:15:41.142Z,101302.69
2022-08-05T01:18:56.702Z,101304.38
2022-08-05T01:22:24.184Z,101292.28
2022-08-05T01:26:11.518Z,101297.78
2022-08-05T01:29:23.974Z,101283.41
2022-08-05T01:32:35.171Z,101276.88
2022-08-05T01:35:50.709Z,101269.63
2022-08-05T01:39:00.118Z,101266.28
2022-08-05T01:42:09.717Z,101255.25
2022-08-05T01:45:17.007Z,101280.41
2022-08-05T01:48:22.842Z,101288.91
2022-08-05T01:51:29.385Z,101294.75
2022-08-05T01:54:46.287Z,101281.84
2022-08-05T01:58:14.655Z,101268.41
2022-08-05T02:01:24.699Z,101267.28
2022-08-05T02:04:36.283Z,101280.38
2022-08-05T02:07:43.072Z,101269.94
2022-08-05T02:11:08.517Z,101251.84
2022-08-05T02:14:22.850Z,101234.38
2022-08-05T02:18:28.338Z,101240.72
2022-08-05T02:21:02.734Z,101226.06
2022-08-05T02:24:12.255Z,101231.25
2022-08-05T02:27:30.011Z,101224.09
2022-08-05T02:30:56.489Z,101220.47
2022-08-05T02:34:09.893Z,101216.00
2022-08-05T02:37:16.207Z,101204.25
2022-08-05T02:40:24.324Z,101203.00
2022-08-05T02:43:31.257Z,101197.56
2022-08-05T02:46:53.544Z,101205.63
2022-08-05T02:50:09.482Z,101207.97
2022-08-05T02:53:19.426Z,101197.28
2022-08-05T02:56:27.339Z,101188.34
2022-08-05T02:59:47.905Z,101185.75
2022-08-05T03:02:56.636Z,101189.28
2022-08-05T03:06:56.096Z,101194.47
2022-08-05T03:09:37.679Z,101188.44
2022-08-05T03:12:43.939Z,101186.78
2022-08-05T03:15:49.678Z,101199.66
2022-08-05T03:18:57.036Z,101215.78
2022-08-05T03:22:04.745Z,101206.84
2022-08-05T03:25:32.742Z,101191.88
2022-08-05T03:28:49.469Z,101202.59
2022-08-05T03:32:00.505Z,101226.41
2022-08-05T03:35:08.917Z,101227.34
2022-08-05T03:38:16.189Z,101227.72
2022-08-05T03:41:24.627Z,101233.66
2022-08-05T03:44:30.446Z,101238.59
2022-08-05T03:47:41.326Z,101231.91
2022-08-05T03:52:38.508Z,101221.91
2022-08-05T03:55:51.842Z,101219.75
2022-08-05T03:57:59.018Z,101202.25
2022-08-05T04:01:07.297Z,101210.06
2022-08-05T04:04:12.359Z,101228.44
2022-08-05T04:07:24.882Z,101233.75
2022-08-05T04:10:37.369Z,101237.69
2022-08-05T04:13:50.281Z,101252.97
2022-08-05T04:16:56.718Z,101263.91
2022-08-05T04:20:02.573Z,101269.13
2022-08-05T04:23:12.537Z,101291.22
2022-08-05T04:26:22.777Z,101271.44
2022-08-05T04:29:27.986Z,101283.53
2022-08-05T04:32:34.990Z,101272.09
2022-08-05T04:36:16.716Z,101269.03
2022-08-05T04:39:07.401Z,101235.06
2022-08-05T04:42:15.041Z,101241.53
2022-08-05T04:45:31.175Z,101241.25
2022-08-05T04:48:45.547Z,101212.25
2022-08-05T04:51:51.092Z,101196.44
2022-08-05T04:55:14.159Z,101179.63
2022-08-05T04:58:22.197Z,101159.53
2022-08-05T05:01:33.762Z,101156.84
2022-08-05T05:04:52.341Z,101167.53
2022-08-05T05:08:02.108Z,101170.50
2022-08-05T05:11:07.962Z,101161.88
2022-08-05T05:14:16.090Z,101180.66
2022-08-05T05:17:24.491Z,101192.00
2022-08-05T05:20:30.275Z,101196.41
2022-08-05T05:24:01.948Z,101206.19
2022-08-05T05:27:01.313Z,101212.53
2022-08-05T05:30:15.350Z,101210.34
2022-08-05T05:33:58.709Z,101205.25
2022-08-05T05:36:59.021Z,101199.13
2022-08-05T05:40:04.567Z,101198.09
2022-08-05T05:43:16.349Z,101200.72
2022-08-05T05:46:34.828Z,101201.53
2022-08-05T05:49:45.294Z,101204.06
2022-08-05T05:53:01.743Z,101202.66
2022-08-05T05:56:32.543Z,101192.84
2022-08-05T05:59:40.317Z,101186.41
2022-08-05T06:02:47.778Z,101182.34
2022-08-05T06:05:54.172Z,101181.31
2022-08-05T06:09:01.122Z,101179.88
2022-08-05T06:12:09.724Z,101175.16
2022-08-05T06:15:23.904Z,101184.63
2022-08-05T06:18:31.858Z,101187.84
2022-08-05T06:21:42.905Z,101196.69
2022-08-05T06:24:55.220Z,101195.50
2022-08-05T06:28:11.537Z,101194.63
2022-08-05T06:31:30.521Z,101197.94
2022-08-05T06:34:38.583Z,101201.03
2022-08-05T06:37:57.305Z,101200.03
2022-08-05T06:41:03.664Z,101195.75
2022-08-05T06:44:08.999Z,101196.50
2022-08-05T06:48:11.305Z,101198.81
2022-08-05T06:50:40.631Z,101186.75
2022-08-05T06:53:53.653Z,101194.88
2022-08-05T06:57:57.691Z,101182.09
2022-08-05T07:00:25.497Z,101186.97
2022-08-05T07:03:33.217Z,101185.81
2022-08-05T07:06:39.857Z,101193.41
2022-08-05T07:09:45.572Z,101193.53
2022-08-05T07:13:18.169Z,101191.19
2022-08-05T07:18:07.104Z,101195.69
2022-08-05T07:20:37.010Z,101185.97
2022-08-05T07:23:49.764Z,101197.47
2022-08-05T07:26:55.766Z,101207.81
2022-08-05T07:30:28.508Z,101194.28
2022-08-05T07:33:35.103Z,101188.81
2022-08-05T07:36:43.028Z,101196.31
2022-08-05T07:40:26.088Z,101198.94
2022-08-05T07:43:20.788Z,101202.34
2022-08-05T07:46:27.495Z,101188.53
2022-08-05T07:49:32.542Z,101183.09
2022-08-05T07:52:48.641Z,101201.63
2022-08-05T07:56:05.777Z,101193.03
2022-08-05T07:59:31.046Z,101190.63
2022-08-05T08:03:15.135Z,101189.19
2022-08-05T08:06:10.929Z,101190.53
2022-08-05T08:09:15.955Z,101182.97
2022-08-05T08:12:37.448Z,101186.78
2022-08-05T08:16:35.317Z,101187.19
2022-08-05T08:19:37.956Z,101190.66
2022-08-05T08:22:37.559Z,101189.09
2022-08-05T08:25:59.961Z,101179.22
2022-08-05T08:29:29.319Z,101190.81
2022-08-05T08:32:36.262Z,101186.78
2022-08-05T08:35:52.806Z,101184.38
2022-08-05T08:39:15.194Z,101186.75
2022-08-05T08:42:50.680Z,101183.47
2022-08-05T08:45:59.591Z,101177.28
2022-08-05T08:50:12.806Z,101178.44
2022-08-05T08:52:33.403Z,101164.72
2022-08-05T08:56:03.818Z,101156.25
2022-08-05T08:59:14.655Z,101151.84
2022-08-05T09:02:26.961Z,101142.06
2022-08-05T09:05:38.913Z,101136.94
2022-08-05T09:08:58.120Z,101131.34
2022-08-05T09:12:14.461Z,101150.91
2022-08-05T09:15:27.569Z,101135.91
2022-08-05T09:18:42.629Z,101136.84
2022-08-05T09:22:22.849Z,101142.09
2022-08-05T09:25:24.296Z,101134.56
2022-08-05T09:28:48.823Z,101136.09
2022-08-05T09:32:42.299Z,101130.31
2022-08-05T09:35:32.772Z,101121.09
2022-08-05T09:38:38.035Z,101127.31
2022-08-05T09:42:00.810Z,101127.63
2022-08-05T09:46:02.693Z,101117.53
2022-08-05T09:48:37.063Z,101114.78
2022-08-05T09:51:44.687Z,101111.06
2022-08-05T09:55:06.246Z,101110.97
2022-08-05T09:58:31.333Z,101102.13
2022-08-05T10:01:45.859Z,101106.56
2022-08-05T10:04:53.142Z,101102.28
2022-08-05T10:08:34.864Z,101101.25
2022-08-05T10:11:35.013Z,101099.97
2022-08-05T10:14:40.521Z,101093.38
2022-08-05T10:18:11.785Z,101083.84
2022-08-05T10:21:16.912Z,101064.53
2022-08-05T10:24:24.981Z,101058.78
2022-08-05T10:28:12.980Z,101063.16
2022-08-05T10:32:48.964Z,101057.91
2022-08-05T10:34:25.860Z,101057.25
2022-08-05T10:37:40.372Z,101042.47
2022-08-05T10:41:04.844Z,101048.38
2022-08-05T10:44:17.321Z,101040.53
2022-08-05T10:47:26.100Z,101043.28
2022-08-05T10:50:36.556Z,101054.41
2022-08-05T10:53:45.544Z,101055.63
2022-08-05T10:56:55.935Z,101048.88
2022-08-05T11:00:19.805Z,101051.22
2022-08-05T11:03:27.112Z,101074.47
2022-08-05T11:06:33.455Z,101075.16
2022-08-05T11:09:46.130Z,101064.09
2022-08-05T11:12:55.180Z,101065.47
2022-08-05T11:16:33.830Z,101064.63
2022-08-05T11:20:10.369Z,101050.56
2022-08-05T11:24:04.678Z,101057.31
2022-08-05T11:27:45.756Z,101074.06
2022-08-05T11:31:58.661Z,101089.25
2022-08-05T11:34:54.446Z,101095.28
2022-08-05T11:38:30.195Z,101087.28
2022-08-05T11:41:54.452Z,101082.00
2022-08-05T11:44:56.813Z,101077.13
2022-08-05T11:48:11.681Z,101079.88
2022-08-05T11:51:44.811Z,101096.97
2022-08-05T11:54:43.451Z,101087.28
2022-08-05T11:58:09.111Z,101083.28
2022-08-05T12:01:19.071Z,101075.88
2022-08-05T12:04:26.836Z,101079.72
2022-08-05T12:08:08.420Z,101080.75
2022-08-05T12:11:05.493Z,101094.44
2022-08-05T12:14:12.700Z,101101.31
2022-08-05T12:18:03.842Z,101097.19
2022-08-05T12:20:45.412Z,101102.69
2022-08-05T12:24:00.175Z,101116.81
2022-08-05T12:27:21.672Z,101119.44
2022-08-05T12:30:45.729Z,101096.06
2022-08-05T12:33:51.435Z,101107.84
2022-08-05T12:37:01.475Z,101146.69
2022-08-05T12:40:11.484Z,101157.91
2022-08-05T12:43:32.386Z,101149.81
2022-08-05T12:46:40.895Z,101155.25
2022-08-05T12:50:04.098Z,101153.56
2022-08-05T12:53:18.853Z,101125.34
2022-08-05T12:56:34.156Z,101117.53
2022-08-05T13:01:58.221Z,101118.28
2022-08-05T13:03:15.424Z,101107.44
2022-08-05T13:06:20.729Z,101104.16
2022-08-05T13:09:28.944Z,101101.31
2022-08-05T13:12:34.102Z,101083.25
2022-08-05T13:15:52.991Z,101071.34
2022-08-05T13:18:58.882Z,101063.50
2022-08-05T13:22:04.249Z,101064.44
2022-08-05T13:25:19.467Z,101068.09
2022-08-05T13:28:27.676Z,101078.88
2022-08-05T13:32:03.472Z,101087.53
2022-08-05T13:34:58.373Z,101081.69
2022-08-05T13:38:04.852Z,101065.03
2022-08-05T13:41:15.639Z,101078.22
2022-08-05T13:44:21.841Z,101082.19
2022-08-05T13:47:35.541Z,101058.47
2022-08-05T13:50:55.352Z,101046.97
2022-08-05T13:54:01.114Z,101052.50
2022-08-05T13:57:09.979Z,101051.72
2022-08-05T14:00:16.032Z,101066.59
2022-08-05T14:03:22.810Z,101085.75
2022-08-05T14:06:28.676Z,101072.16
2022-08-05T14:09:35.610Z,101086.66
2022-08-05T14:12:54.594Z,101113.88
2022-08-05T14:16:07.500Z,101118.63
2022-08-05T14:19:16.253Z,101113.06
2022-08-05T14:22:22.093Z,101128.91
2022-08-05T14:25:28.468Z,101114.72
2022-08-05T14:28:36.866Z,101117.19
2022-08-05T14:32:13.017Z,101113.59
2022-08-05T14:35:22.868Z,101112.94
2022-08-05T14:38:34.127Z,101095.53
2022-08-05T14:42:02.433Z,101089.69
2022-08-05T14:45:10.279Z,101089.28
2022-08-05T14:48:32.697Z,101085.63
2022-08-05T14:51:42.781Z,101075.53
2022-08-05T14:54:53.086Z,101078.41
2022-08-05T14:57:59.014Z,101080.72
2022-08-05T15:01:06.716Z,101079.03
2022-08-05T15:04:22.453Z,101072.56
2022-08-05T15:08:05.698Z,101057.44
2022-08-05T15:10:53.311Z,101058.13
2022-08-05T15:14:00.235Z,101063.75
2022-08-05T15:17:20.826Z,101064.81
2022-08-05T15:20:31.837Z,101064.22
2022-08-05T15:23:38.104Z,101072.84
2022-08-05T15:26:43.200Z,101063.00
2022-08-05T15:29:49.200Z,101062.66
2022-08-05T15:32:56.361Z,101071.44
2022-08-05T15:36:03.627Z,101068.19
2022-08-05T15:41:00.214Z,101071.53
2022-08-05T15:42:57.556Z,101069.56
2022-08-05T15:46:01.375Z,101066.13
2022-08-05T15:49:09.931Z,101053.84
2022-08-05T15:52:29.261Z,101057.00
2022-08-05T15:56:04.286Z,101053.94
2022-08-05T15:59:07.671Z,101051.13
2022-08-05T16:02:14.925Z,101044.00
2022-08-05T16:05:28.508Z,101027.41
2022-08-05T16:08:33.761Z,101039.72
2022-08-05T16:11:43.487Z,101047.69
2022-08-05T16:14:48.727Z,101040.63
2022-08-05T16:17:57.837Z,101048.63
2022-08-05T16:21:05.139Z,101053.53
2022-08-05T16:24:20.573Z,101059.13
2022-08-05T16:27:59.740Z,101062.56
2022-08-05T16:31:02.941Z,101069.84
2022-08-05T16:34:09.633Z,101072.56
2022-08-05T16:38:03.294Z,101061.34
2022-08-05T16:40:41.914Z,101055.94
2022-08-05T16:43:56.318Z,101072.34
2022-08-05T16:47:03.290Z,101073.00
2022-08-05T16:50:12.874Z,101063.41
2022-08-05T16:53:22.971Z,101064.25
2022-08-05T16:56:41.477Z,101061.53
2022-08-05T17:00:01.571Z,101068.84
2022-08-05T17:03:20.528Z,101072.38
2022-08-05T17:06:26.480Z,101069.22
2022-08-05T17:09:57.563Z,101062.38
2022-08-05T17:12:58.612Z,101052.91
2022-08-05T17:16:27.615Z,101060.91
2022-08-05T17:19:32.371Z,101057.91
2022-08-05T17:22:39.566Z,101065.47
2022-08-05T17:25:46.691Z,101057.81
2022-08-05T17:28:51.913Z,101066.53
2022-08-05T17:31:58.909Z,101063.00
2022-08-05T17:35:04.935Z,101056.13
2022-08-05T17:38:13.401Z,101070.47
2022-08-05T17:42:28.441Z,101077.66
2022-08-05T17:44:50.255Z,101086.44
2022-08-05T17:47:57.110Z,101071.72
2022-08-05T17:51:02.238Z,101068.41
2022-08-05T17:54:14.365Z,101066.63
2022-08-05T17:57:29.810Z,101060.28
2022-08-05T18:00:36.412Z,101058.63
2022-08-05T18:03:59.720Z,101049.91
2022-08-05T18:07:12.519Z,101063.00
2022-08-05T18:10:21.428Z,101079.00
2022-08-05T18:13:28.104Z,101062.16
2022-08-05T18:16:51.330Z,101081.59
2022-08-05T18:20:16.217Z,101077.22
2022-08-05T18:23:22.132Z,101071.72
2022-08-05T18:26:31.854Z,101083.91
2022-08-05T18:29:41.042Z,101083.06
2022-08-05T18:32:53.148Z,101079.38
2022-08-05T18:36:00.477Z,101082.72
2022-08-05T18:39:42.566Z,101077.13
2022-08-05T18:42:37.614Z,101073.16
2022-08-05T18:45:44.343Z,101064.53
2022-08-05T18:48:52.743Z,101079.38
2022-08-05T18:52:16.001Z,101080.13
2022-08-05T18:55:21.828Z,101088.22
2022-08-05T18:58:28.852Z,101094.78
2022-08-05T19:01:48.245Z,101092.91
2022-08-05T19:06:05.867Z,101101.75
2022-08-05T19:08:30.652Z,101089.28
2022-08-05T19:11:54.792Z,101089.03
2022-08-05T19:15:02.454Z,101097.56
2022-08-05T19:18:20.806Z,101100.91
2022-08-05T19:21:34.275Z,101110.28
2022-08-05T19:24:40.498Z,101109.16
2022-08-05T19:28:01.555Z,101113.97
2022-08-05T19:31:13.575Z,101112.34
2022-08-05T19:34:21.466Z,101106.03
2022-08-05T19:37:35.190Z,101105.84
2022-08-05T19:40:52.594Z,101084.03
2022-08-05T19:44:05.750Z,101094.63
2022-08-05T19:47:15.331Z,101094.81
2022-08-05T19:50:23.081Z,101080.06
2022-08-05T19:54:05.380Z,101085.03
2022-08-05T19:56:56.270Z,101087.72
2022-08-05T20:00:04.470Z,101085.94
2022-08-05T20:03:20.515Z,101095.03
2022-08-05T20:06:29.223Z,101085.34
2022-08-05T20:09:55.151Z,101069.28
2022-08-05T20:12:59.556Z,101071.88
2022-08-05T20:16:05.039Z,101069.88
2022-08-05T20:19:11.471Z,101075.00
2022-08-05T20:22:19.885Z,101065.38
2022-08-05T20:25:25.652Z,101064.69
2022-08-05T20:28:39.371Z,101070.16
2022-08-05T20:31:52.325Z,101072.41
2022-08-05T20:35:00.159Z,101069.72
2022-08-05T20:38:08.286Z,101067.31
2022-08-05T20:41:17.660Z,101058.03
2022-08-05T20:44:34.634Z,101060.28
2022-08-05T20:47:43.164Z,101063.22
2022-08-05T20:50:48.340Z,101063.31
2022-08-05T20:53:56.215Z,101058.03
2022-08-05T20:57:03.481Z,101048.22
2022-08-05T21:00:41.248Z,101059.63
2022-08-05T21:03:37.107Z,101066.59
2022-08-05T21:06:53.689Z,101056.56
2022-08-05T21:10:00.111Z,101057.59
2022-08-05T21:13:11.058Z,101051.97
2022-08-05T21:16:21.273Z,101048.44
2022-08-05T21:19:28.510Z,101046.69
2022-08-05T21:22:33.659Z,101044.72
2022-08-05T21:25:44.486Z,101046.97
2022-08-05T21:28:51.041Z,101043.06
2022-08-05T21:31:56.918Z,101033.91
2022-08-05T21:35:16.661Z,101044.38
2022-08-05T21:38:28.630Z,101053.25
2022-08-05T21:41:35.788Z,101067.16
2022-08-05T21:44:41.138Z,101052.50
2022-08-05T21:47:57.085Z,101035.19
2022-08-05T21:51:03.218Z,101059.47
2022-08-05T21:54:31.001Z,101068.00
2022-08-05T21:57:42.593Z,101058.38
2022-08-05T22:00:51.204Z,101067.25
2022-08-05T22:03:56.797Z,101065.66
2022-08-05T22:07:01.912Z,101064.84
2022-08-05T22:10:09.206Z,101057.44
2022-08-05T22:14:34.612Z,101050.13
2022-08-05T22:16:51.861Z,101048.19
2022-08-05T22:20:02.598Z,101030.88
2022-08-05T22:24:01.269Z,101028.44
2022-08-05T22:27:17.605Z,101037.91
2022-08-05T22:30:24.191Z,101040.50
2022-08-05T22:33:56.594Z,101036.13
2022-08-05T22:36:55.323Z,101039.56
2022-08-05T22:40:01.385Z,101041.41
2022-08-05T22:43:07.178Z,101037.91
2022-08-05T22:46:23.602Z,101037.63
2022-08-05T22:50:17.773Z,101037.56
2022-08-05T22:52:56.581Z,101044.09
2022-08-05T22:56:01.723Z,101043.00
2022-08-05T22:59:44.223Z,101034.38
2022-08-05T23:02:33.907Z,101033.00
2022-08-05T23:05:46.170Z,101045.41
2022-08-05T23:08:52.307Z,101055.00
2022-08-05T23:11:57.743Z,101057.25
2022-08-05T23:15:08.734Z,101063.28
2022-08-05T23:18:15.894Z,101060.72
2022-08-05T23:21:21.217Z,101073.47
2022-08-05T23:24:27.071Z,101065.91
2022-08-05T23:27:57.818Z,101063.16
2022-08-05T23:31:06.967Z,101065.06
2022-08-05T23:34:24.647Z,101075.84
2022-08-05T23:37:36.599Z,101076.16
2022-08-05T23:40:42.676Z,101082.41
2022-08-05T23:44:06.347Z,101067.75
2022-08-05T23:47:15.808Z,101082.97
2022-08-05T23:50:22.796Z,101080.53
2022-08-05T23:53:46.938Z,101075.59
2022-08-05T23:56:52.110Z,101071.81
